Time;durP1;ratioP1;P1;durP2;ratioP2;P2;SDS_P1;SDS_P2;PMS_P1;PMS_P2;Temp;Humidity;BMP_temperature;BMP_pressure;BME280_temperature;BME280_humidity;BME280_pressure;Samples;Min_cycle;Max_cycle;Signal;HPM_P1;HPM_P2
2023/07/14 00:00:25;;;;;;;15.35;9.73;;;;;;;26.40;69.82;99787.25;5105226;28;20084;-19
2023/07/14 00:02:53;;;;;;;18.80;11.00;;;;;;;26.39;69.12;99784.84;5105398;28;20024;-20
2023/07/14 00:05:22;;;;;;;15.25;10.57;;;;;;;26.35;70.02;99787.44;5105586;28;20530;-20
2023/07/14 00:07:49;;;;;;;15.15;10.30;;;;;;;26.17;70.89;99791.41;5105306;28;20110;-22
2023/07/14 00:10:29;;;;;;;19.98;10.10;;;;;;;26.25;69.70;99785.06;5105915;28;20123;-19
2023/07/14 00:12:55;;;;;;;13.70;10.05;;;;;;;26.02;69.27;99771.69;5105262;28;20530;-19
2023/07/14 00:15:21;;;;;;;18.85;10.23;;;;;;;25.64;71.43;99761.59;5104829;28;20028;-19
2023/07/14 00:17:52;;;;;;;17.70;9.93;;;;;;;25.43;72.11;99760.69;5105627;27;20032;-20
2023/07/14 00:20:22;;;;;;;14.18;10.02;;;;;;;25.50;72.72;99771.09;5105554;28;20043;-20
2023/07/14 00:22:49;;;;;;;14.43;10.13;;;;;;;25.72;72.05;99770.06;5105431;28;20081;-19
2023/07/14 00:25:23;;;;;;;18.35;10.88;;;;;;;25.82;70.71;99764.22;5105570;28;20024;-19
2023/07/14 00:27:50;;;;;;;15.43;9.98;;;;;;;25.26;73.12;99765.06;5105247;28;20080;-19
2023/07/14 00:30:21;;;;;;;14.25;10.30;;;;;;;25.14;73.68;99758.63;5105526;28;20080;-20
2023/07/14 00:32:55;;;;;;;15.25;10.10;;;;;;;25.48;73.41;99760.50;5105260;28;20028;-19
2023/07/14 00:35:26;;;;;;;16.90;9.73;;;;;;;25.51;71.54;99762.56;5105334;28;20051;-19
2023/07/14 00:37:54;;;;;;;14.73;10.43;;;;;;;25.77;71.37;99767.94;5104844;28;20031;-19
2023/07/14 00:40:38;;;;;;;13.65;10.25;;;;;;;25.64;71.44;99767.03;5104984;28;20031;-19
2023/07/14 00:43:05;;;;;;;17.48;9.77;;;;;;;25.25;72.99;99766.19;5105040;28;20594;-20
2023/07/14 00:45:35;;;;;;;14.95;10.35;;;;;;;25.35;71.91;99764.22;5104856;28;20513;-20
2023/07/14 00:48:04;;;;;;;15.95;9.73;;;;;;;25.60;71.65;99755.16;5105443;28;20133;-20
2023/07/14 00:50:34;;;;;;;15.38;10.18;;;;;;;25.28;72.67;99761.22;5104540;28;20570;-20
2023/07/14 00:53:06;;;;;;;13.70;9.98;;;;;;;25.32;71.95;99748.53;5104833;28;20157;-19
2023/07/14 00:55:55;;;;;;;13.35;9.32;;;;;;;25.60;70.92;99762.53;5105163;28;20034;-19
2023/07/14 00:58:27;;;;;;;13.45;9.52;;;;;;;25.43;72.02;99755.22;5104643;28;20063;-19
2023/07/14 01:01:25;;;;;;;13.65;10.18;;;;;;;25.35;72.03;99759.56;5105153;28;20012;-20
2023/07/14 01:03:55;;;;;;;16.20;10.30;;;;;;;25.26;73.43;99756.06;5104664;28;20659;-21
2023/07/14 01:06:35;;;;;;;18.13;10.38;;;;;;;25.51;72.26;99754.38;5104903;28;20036;-19
2023/07/14 01:09:10;;;;;;;13.65;10.02;;;;;;;25.63;72.07;99754.50;5104596;28;20114;-19
2023/07/14 01:11:55;;;;;;;20.48;10.05;;;;;;;25.10;74.23;99753.03;5104816;28;20061;-19
2023/07/14 01:14:28;;;;;;;16.85;10.32;;;;;;;25.02;74.30;99751.09;5104649;28;20024;-22
2023/07/14 01:16:54;;;;;;;30.23;11.50;;;;;;;25.06;74.14;99760.25;5104808;28;20543;-19
2023/07/14 01:19:28;;;;;;;22.67;10.18;;;;;;;25.13;73.75;99763.31;5104912;28;20019;-20
2023/07/14 01:22:04;;;;;;;17.88;10.48;;;;;;;24.56;75.90;99739.75;5104428;28;20038;-19
2023/07/14 01:24:40;;;;;;;19.37;10.10;;;;;;;25.09;74.07;99759.63;5103718;28;20066;-19
2023/07/14 01:27:08;;;;;;;14.98;9.50;;;;;;;24.59;76.80;99754.66;5108230;28;20027;-19
2023/07/14 01:29:34;;;;;;;16.70;9.73;;;;;;;24.45;77.44;99760.22;5107757;28;20043;-19
2023/07/14 01:32:01;;;;;;;13.90;10.15;;;;;;;24.14;79.15;99765.78;5088507;28;20048;-20
2023/07/14 01:34:30;;;;;;;15.45;10.52;;;;;;;24.31;77.26;99760.38;5088206;28;20051;-19
2023/07/14 01:36:58;;;;;;;17.15;11.20;;;;;;;23.94;79.58;99759.78;5094970;28;20142;-19
2023/07/14 01:39:28;;;;;;;14.27;10.10;;;;;;;24.36;77.91;99754.78;5108224;28;20132;-19
2023/07/14 01:41:53;;;;;;;17.65;10.52;;;;;;;24.36;77.63;99756.72;5108708;28;20091;-19
2023/07/14 01:44:20;;;;;;;15.15;10.43;;;;;;;24.45;77.06;99744.66;5108662;28;20035;-19
2023/07/14 01:46:48;;;;;;;18.25;11.27;;;;;;;24.40;77.23;99742.13;5108178;27;20106;-23
2023/07/14 01:49:37;;;;;;;15.77;10.45;;;;;;;24.50;77.52;99751.13;5108230;28;20054;-20
2023/07/14 01:52:13;;;;;;;16.55;11.00;;;;;;;24.58;76.55;99751.16;5107988;28;20751;-20
2023/07/14 01:54:51;;;;;;;12.45;10.27;;;;;;;24.64;77.33;99770.84;5108239;28;20088;-21
2023/07/14 01:57:21;;;;;;;16.10;11.57;;;;;;;24.89;76.25;99769.25;5108294;28;20504;-20
2023/07/14 01:59:52;;;;;;;13.13;11.00;;;;;;;24.41;78.49;99746.44;5107716;28;20069;-19
2023/07/14 02:02:36;;;;;;;14.27;10.52;;;;;;;24.29;79.94;99765.34;5108684;28;20019;-17
2023/07/14 02:05:08;;;;;;;14.50;10.70;;;;;;;24.57;76.15;99762.34;5109171;28;20496;-19
2023/07/14 02:07:34;;;;;;;18.77;11.48;;;;;;;24.17;76.89;99767.88;5109122;27;20023;-19
2023/07/14 02:09:59;;;;;;;16.63;11.27;;;;;;;24.05;78.30;99763.84;5108771;28;20039;-19
2023/07/14 02:12:34;;;;;;;14.45;11.68;;;;;;;23.99;78.31;99754.22;5108692;28;20028;-19
2023/07/14 02:15:07;;;;;;;17.58;10.52;;;;;;;23.86;79.73;99761.41;5109010;28;20027;-19
2023/07/14 02:17:35;;;;;;;15.88;10.88;;;;;;;24.12;78.00;99768.03;5102456;28;20020;-19
2023/07/14 02:20:06;;;;;;;16.60;11.15;;;;;;;23.91;79.35;99763.16;5088398;28;20032;-19
2023/07/14 02:22:37;;;;;;;14.95;11.32;;;;;;;24.12;79.20;99762.59;5088068;28;20028;-19
2023/07/14 02:25:07;;;;;;;15.93;11.32;;;;;;;24.03;79.55;99763.38;5088565;28;20568;-19
2023/07/14 02:27:32;;;;;;;18.40;11.82;;;;;;;23.91;79.63;99754.19;5088381;28;20020;-19
2023/07/14 02:30:09;;;;;;;14.45;10.43;;;;;;;23.97;79.78;99755.66;5088184;28;20402;-19
2023/07/14 02:32:40;;;;;;;14.32;10.70;;;;;;;24.05;79.34;99747.50;5088159;28;20020;-19
2023/07/14 02:35:20;;;;;;;13.98;10.65;;;;;;;24.22;79.12;99768.53;5088104;28;20016;-19
2023/07/14 02:38:06;;;;;;;15.02;10.65;;;;;;;24.34;77.85;99765.19;5087811;28;20026;-19
2023/07/14 02:41:05;;;;;;;14.90;10.70;;;;;;;24.39;77.52;99761.50;5088346;28;20024;-19
2023/07/14 02:43:30;;;;;;;15.77;11.35;;;;;;;24.03;79.49;99749.75;5080170;28;20047;-19
2023/07/14 02:45:57;;;;;;;18.08;11.18;;;;;;;24.09;80.21;99746.84;5088047;28;20016;-19
2023/07/14 02:48:34;;;;;;;20.60;11.20;;;;;;;24.04;80.87;99735.00;5088081;28;20050;-19
2023/07/14 02:50:59;;;;;;;16.40;12.27;;;;;;;24.53;78.05;99747.75;5087778;28;20504;-19
2023/07/14 02:53:24;;;;;;;17.23;11.30;;;;;;;24.39;78.58;99751.41;5087812;28;20035;-24
2023/07/14 02:55:50;;;;;;;17.42;11.27;;;;;;;24.35;78.09;99755.88;5087594;28;20032;-19
2023/07/14 02:58:15;;;;;;;16.42;11.65;;;;;;;24.24;78.81;99757.31;5087748;28;20397;-19
2023/07/14 03:00:41;;;;;;;19.67;11.05;;;;;;;24.16;79.02;99758.91;5087476;28;20028;-19
2023/07/14 03:03:06;;;;;;;17.20;11.88;;;;;;;24.21;78.99;99771.56;5087438;28;20031;-18
2023/07/14 03:05:32;;;;;;;23.70;11.43;;;;;;;24.30;78.38;99780.56;5087742;28;20534;-19
2023/07/14 03:08:00;;;;;;;20.67;12.35;;;;;;;24.24;78.26;99779.91;5087583;28;20089;-19
2023/07/14 03:10:26;;;;;;;17.67;12.52;;;;;;;24.46;77.71;99779.00;5087435;28;20143;-20
2023/07/14 03:12:53;;;;;;;19.80;12.32;;;;;;;24.49;77.19;99790.38;5087234;28;20115;-18
2023/07/14 03:15:19;;;;;;;18.50;12.17;;;;;;;24.30;77.32;99796.91;5087307;28;20032;-20
2023/07/14 03:17:48;;;;;;;21.33;11.73;;;;;;;24.23;77.76;99791.94;5087302;28;20266;-19
2023/07/14 03:20:14;;;;;;;18.08;11.45;;;;;;;23.78;80.81;99778.50;5087390;28;20028;-19
2023/07/14 03:22:39;;;;;;;15.82;12.35;;;;;;;23.97;80.64;99777.44;5087361;28;20039;-19
2023/07/14 03:25:06;;;;;;;22.45;12.90;;;;;;;24.49;78.05;99787.66;5087022;28;20773;-19
2023/07/14 03:27:32;;;;;;;16.65;12.45;;;;;;;24.40;77.95;99791.16;5087108;28;20031;-19
2023/07/14 03:29:59;;;;;;;16.52;12.00;;;;;;;24.08;80.05;99799.75;5086728;28;20397;-19
2023/07/14 03:32:25;;;;;;;14.55;12.02;;;;;;;24.08;80.17;99813.38;5087285;28;20017;-20
2023/07/14 03:34:53;;;;;;;21.30;12.10;;;;;;;24.29;78.12;99808.94;5087165;28;20035;-19
2023/07/14 03:37:18;;;;;;;19.63;12.45;;;;;;;24.31;78.17;99830.41;5087039;28;20106;-19
2023/07/14 03:39:44;;;;;;;18.08;13.15;;;;;;;23.88;81.11;99825.63;5086747;28;20135;-19
2023/07/14 03:42:10;;;;;;;17.00;11.93;;;;;;;23.79;81.89;99825.59;5086969;28;20233;-19
2023/07/14 03:44:35;;;;;;;17.25;12.20;;;;;;;24.19;79.74;99828.28;5086902;28;20420;-19
2023/07/14 03:47:02;;;;;;;19.00;13.45;;;;;;;24.64;77.26;99849.91;5086772;28;20016;-19
2023/07/14 03:49:30;;;;;;;23.02;12.88;;;;;;;24.51;78.76;99845.41;5085839;28;20568;-19
2023/07/14 03:51:56;;;;;;;19.20;13.18;;;;;;;24.45;78.65;99845.53;5086646;28;20089;-20
2023/07/14 03:54:21;;;;;;;24.52;14.40;;;;;;;24.88;77.44;99875.94;5086689;28;20036;-19
2023/07/14 03:56:47;;;;;;;19.90;13.30;;;;;;;24.97;76.26;99890.41;5086160;28;20119;-19
2023/07/14 03:59:16;;;;;;;21.30;13.77;;;;;;;24.73;77.66;99890.84;5086374;28;20040;-19
2023/07/14 04:01:41;;;;;;;19.17;12.65;;;;;;;24.90;76.61;99895.53;5098695;28;20100;-19
2023/07/14 04:04:06;;;;;;;15.63;12.25;;;;;;;24.57;79.39;99899.47;5106890;27;20027;-19
2023/07/14 04:06:32;;;;;;;14.80;12.25;;;;;;;24.71;78.93;99904.78;5106809;28;20413;-19
2023/07/14 04:09:00;;;;;;;17.75;12.80;;;;;;;24.73;78.28;99897.09;5106400;28;21212;-19
2023/07/14 04:11:26;;;;;;;18.85;12.75;;;;;;;24.72;79.65;99903.66;5107019;28;20050;-24
2023/07/14 04:13:51;;;;;;;16.25;12.65;;;;;;;24.80;79.48;99907.53;5106229;28;20675;-19
2023/07/14 04:16:16;;;;;;;15.05;13.23;;;;;;;24.63;80.45;99919.22;5106566;28;20122;-19
2023/07/14 04:18:42;;;;;;;19.30;12.63;;;;;;;24.31;81.93;99910.25;5106296;28;20118;-19
2023/07/14 04:21:13;;;;;;;17.17;11.95;;;;;;;24.54;81.77;99915.66;5106157;28;20024;-19
2023/07/14 04:23:40;;;;;;;16.60;12.60;;;;;;;24.65;81.33;99916.97;5106445;28;20032;-19
2023/07/14 04:26:13;;;;;;;15.13;12.45;;;;;;;24.54;81.55;99923.81;5106363;28;20027;-18
2023/07/14 04:28:38;;;;;;;18.20;13.38;;;;;;;24.54;81.36;99921.09;5106257;28;20034;-19
2023/07/14 04:31:06;;;;;;;17.30;13.60;;;;;;;24.42;80.07;99908.84;5106507;28;20032;-19
2023/07/14 04:33:32;;;;;;;18.30;13.43;;;;;;;24.49;80.67;99913.84;5106248;28;20057;-19
2023/07/14 04:35:58;;;;;;;16.38;12.88;;;;;;;24.73;81.18;99918.13;5106649;28;20019;-21
2023/07/14 04:38:24;;;;;;;17.52;12.57;;;;;;;24.50;82.36;99906.50;5106307;28;20032;-19
2023/07/14 04:40:51;;;;;;;23.58;14.57;;;;;;;24.73;80.74;99924.38;5106250;28;20023;-19
2023/07/14 04:43:18;;;;;;;19.98;13.63;;;;;;;24.78;81.29;99937.03;5106508;28;20023;-18
2023/07/14 04:45:45;;;;;;;19.85;14.13;;;;;;;25.16;78.17;99945.47;5106345;28;20022;-19
2023/07/14 04:48:16;;;;;;;21.13;14.55;;;;;;;25.18;78.40;99940.50;5106306;28;20045;-19
2023/07/14 04:50:44;;;;;;;17.90;14.02;;;;;;;25.16;78.84;99948.19;5105852;28;20080;-19
2023/07/14 04:53:12;;;;;;;21.20;13.70;;;;;;;25.46;77.94;99949.22;5106001;28;20103;-19
2023/07/14 04:55:43;;;;;;;17.40;13.32;;;;;;;25.48;77.30;99948.88;5106157;28;20024;-19
2023/07/14 04:58:13;;;;;;;25.70;15.23;;;;;;;25.54;77.87;99933.13;5104565;28;20070;-19
2023/07/14 05:00:42;;;;;;;23.33;14.73;;;;;;;25.83;77.01;99937.94;5105515;28;20019;-19
2023/07/14 05:03:08;;;;;;;19.85;14.43;;;;;;;26.12;75.02;99947.38;5106017;28;20492;-18
2023/07/14 05:05:34;;;;;;;43.13;22.35;;;;;;;26.26;75.86;99948.75;5105513;28;20027;-19
2023/07/14 05:08:00;;;;;;;18.23;13.35;;;;;;;26.37;74.47;99968.34;5105526;28;20046;-19
2023/07/14 05:10:28;;;;;;;24.73;19.57;;;;;;;26.50;73.54;99952.03;5105905;28;20119;-19
2023/07/14 05:12:56;;;;;;;19.83;13.50;;;;;;;26.53;73.40;99943.19;5106397;28;20035;-19
2023/07/14 05:15:24;;;;;;;23.23;13.23;;;;;;;26.76;71.48;99950.00;5105541;28;20036;-19
2023/07/14 05:17:50;;;;;;;18.48;13.18;;;;;;;26.80;70.49;99947.41;5105876;28;20039;-19
2023/07/14 05:20:18;;;;;;;22.33;13.20;;;;;;;26.81;70.79;99944.34;5105390;28;20020;-19
2023/07/14 05:22:45;;;;;;;;;;;;;;;26.83;71.00;99935.81;5106318;28;20055;-19
2023/07/14 05:25:15;;;;;;;19.00;12.68;;;;;;;27.17;69.45;99942.97;5105369;28;19911;-20
2023/07/14 05:27:43;;;;;;;20.80;12.20;;;;;;;27.37;67.98;99943.34;5104656;28;20024;-21
2023/07/14 05:30:09;;;;;;;20.40;12.75;;;;;;;27.47;66.79;99953.09;5104493;28;20225;-20
2023/07/14 05:32:36;;;;;;;20.52;12.20;;;;;;;27.56;66.05;99956.56;5104626;28;20032;-20
2023/07/14 05:35:02;;;;;;;18.83;11.77;;;;;;;27.73;63.62;99944.66;5104856;28;20176;-19
2023/07/14 05:37:28;;;;;;;20.38;10.80;;;;;;;27.78;62.67;99936.22;5104734;28;20573;-19
2023/07/14 05:39:53;;;;;;;22.15;12.75;;;;;;;27.93;63.14;99930.13;5104656;28;20031;-19
2023/07/14 05:42:19;;;;;;;17.52;11.35;;;;;;;27.73;63.85;99918.06;5104285;28;20360;-19
2023/07/14 05:44:44;;;;;;;16.65;11.38;;;;;;;27.80;63.76;99936.66;5104292;28;20674;-20
2023/07/14 05:47:10;;;;;;;19.90;10.27;;;;;;;28.04;63.32;99934.03;5104075;28;20051;-19
2023/07/14 05:49:36;;;;;;;15.13;10.05;;;;;;;28.39;61.26;99944.56;5104408;28;20156;-20
2023/07/14 05:52:04;;;;;;;20.35;10.63;;;;;;;28.30;60.59;99941.16;5104420;28;20023;-21
2023/07/14 05:54:32;;;;;;;16.67;10.02;;;;;;;28.21;60.16;99937.69;5104269;28;20023;-22
2023/07/14 05:56:58;;;;;;;17.23;10.30;;;;;;;28.48;59.72;99952.69;5104306;28;20483;-20
2023/07/14 05:59:23;;;;;;;16.17;9.95;;;;;;;28.60;58.35;99938.22;5103871;28;20130;-19
2023/07/14 06:01:50;;;;;;;15.98;9.52;;;;;;;28.74;57.50;99940.59;5103755;28;20012;-19
2023/07/14 06:04:19;;;;;;;15.20;8.60;;;;;;;28.87;56.53;99939.44;5104426;28;20581;-20
2023/07/14 06:06:47;;;;;;;15.25;9.90;;;;;;;28.99;55.73;99955.09;5104319;28;20031;-19
2023/07/14 06:09:17;;;;;;;14.25;10.25;;;;;;;29.12;54.75;99953.19;5104419;28;20015;-19
2023/07/14 06:11:43;;;;;;;16.48;9.00;;;;;;;29.39;53.39;99962.59;5103843;28;20427;-19
2023/07/14 06:14:09;;;;;;;16.83;10.07;;;;;;;29.50;52.23;99963.69;5106546;28;20063;-20
2023/07/14 06:16:35;;;;;;;14.00;9.45;;;;;;;29.61;52.69;99975.00;5107560;28;20552;-19
2023/07/14 06:19:01;;;;;;;15.13;9.13;;;;;;;29.74;52.75;99979.31;5107446;28;20069;-13
2023/07/14 06:21:26;;;;;;;15.98;9.90;;;;;;;29.93;52.35;99975.09;5106105;28;20084;-27
2023/07/14 06:23:51;;;;;;;15.63;9.48;;;;;;;30.13;50.75;99968.56;5105779;28;20048;-24
2023/07/14 06:26:17;;;;;;;20.08;10.07;;;;;;;30.24;50.05;99968.84;5102840;28;20712;-24
2023/07/14 06:28:43;;;;;;;21.52;10.20;;;;;;;30.24;51.00;99964.16;5106370;28;20067;-24
2023/07/14 06:31:13;;;;;;;18.98;9.90;;;;;;;30.39;51.22;99948.03;5106327;28;20554;-24
2023/07/14 06:33:40;;;;;;;14.48;9.75;;;;;;;30.70;48.16;99963.69;5086109;28;20496;-25
2023/07/14 06:36:06;;;;;;;14.98;9.10;;;;;;;30.76;49.62;99966.97;5086052;28;20548;-24
2023/07/14 06:38:34;;;;;;;13.93;8.40;;;;;;;30.89;50.18;99962.19;5085047;28;20036;-27
2023/07/14 06:41:07;;;;;;;16.50;9.25;;;;;;;30.98;47.37;99957.28;5103912;28;20088;-24
2023/07/14 06:43:33;;;;;;;17.23;10.18;;;;;;;31.04;47.61;99964.91;5104883;28;20038;-25
2023/07/14 06:45:58;;;;;;;15.32;9.52;;;;;;;31.06;46.09;99969.25;5089755;28;20028;-24
2023/07/14 06:48:25;;;;;;;17.17;9.35;;;;;;;31.23;47.24;99964.13;5099380;28;20020;-24
2023/07/14 06:50:51;;;;;;;17.00;9.77;;;;;;;31.22;47.49;99962.53;5107209;28;20051;-24
2023/07/14 06:53:17;;;;;;;14.95;9.90;;;;;;;31.38;45.59;99969.94;5107115;28;20074;-24
2023/07/14 06:55:43;;;;;;;18.60;9.77;;;;;;;31.40;46.10;99965.66;5107020;28;20024;-24
2023/07/14 06:58:09;;;;;;;17.98;10.15;;;;;;;31.65;46.55;99965.41;5106774;28;20039;-26
2023/07/14 07:00:35;;;;;;;14.85;10.07;;;;;;;31.86;45.29;99966.97;5106758;28;20106;-24
2023/07/14 07:03:03;;;;;;;20.70;9.55;;;;;;;31.95;45.31;99968.31;5107274;28;20027;-24
2023/07/14 07:05:29;;;;;;;18.23;10.25;;;;;;;32.28;45.62;99978.00;5105643;28;20484;-27
2023/07/14 07:07:55;;;;;;;17.27;10.20;;;;;;;32.66;42.54;99973.50;5102995;28;20443;-27
2023/07/14 07:10:23;;;;;;;15.73;9.23;;;;;;;32.55;41.58;99973.34;5106649;28;20510;-23
2023/07/14 07:12:48;;;;;;;14.57;8.90;;;;;;;32.77;42.45;99971.69;5106475;28;20081;-24
2023/07/14 07:15:14;;;;;;;14.50;8.90;;;;;;;33.05;42.38;99976.06;5105834;28;20032;-24
2023/07/14 07:17:41;;;;;;;13.43;8.43;;;;;;;33.06;41.41;99974.09;5106230;28;20015;-24
2023/07/14 07:20:08;;;;;;;15.88;9.00;;;;;;;33.32;40.55;99978.81;5106095;28;20028;-25
2023/07/14 07:22:43;;;;;;;16.77;9.40;;;;;;;33.33;41.32;99985.94;5104975;28;20074;-24
2023/07/14 07:25:08;;;;;;;14.55;9.20;;;;;;;33.19;41.19;99976.28;5106027;28;20055;-28
2023/07/14 07:27:34;;;;;;;19.67;9.65;;;;;;;33.39;41.19;99973.38;5106308;28;20173;-24
2023/07/14 07:30:02;;;;;;;15.68;8.63;;;;;;;33.56;40.26;99983.84;5106058;28;20039;-23
2023/07/14 07:32:28;;;;;;;16.25;8.82;;;;;;;33.55;39.21;99987.78;5106411;27;20019;-24
2023/07/14 07:34:59;;;;;;;15.55;8.45;;;;;;;33.87;38.63;99984.59;5105290;28;20024;-24
2023/07/14 07:37:27;;;;;;;11.63;7.20;;;;;;;34.10;37.93;99978.91;5105917;27;20019;-23
2023/07/14 07:40:00;;;;;;;16.70;8.73;;;;;;;34.01;36.93;99987.53;5105644;28;20031;-24
2023/07/14 07:42:28;;;;;;;16.90;8.02;;;;;;;34.20;37.09;99980.22;5105760;28;20035;-24
2023/07/14 07:44:53;;;;;;;13.73;8.80;;;;;;;34.53;37.76;99978.50;5105304;28;20088;-23
2023/07/14 07:47:19;;;;;;;14.13;8.05;;;;;;;34.67;36.58;99977.84;5105373;28;20020;-24
2023/07/14 07:49:44;;;;;;;19.50;8.60;;;;;;;34.74;35.45;99978.69;5105173;28;20031;-23
2023/07/14 07:52:12;;;;;;;13.40;8.27;;;;;;;34.66;35.11;99973.50;5105056;28;20451;-23
2023/07/14 07:54:40;;;;;;;;;;;;;;;34.99;35.17;99984.38;5105953;28;20133;-25
2023/07/14 07:57:09;;;;;;;12.95;7.45;;;;;;;35.12;35.48;99982.06;5105252;28;19920;-24
2023/07/14 07:59:36;;;;;;;11.68;7.43;;;;;;;35.39;34.44;99981.84;5105022;28;20542;-24
2023/07/14 08:02:02;;;;;;;15.50;7.13;;;;;;;35.38;34.86;99983.81;5105540;28;20019;-24
2023/07/14 08:04:28;;;;;;;11.15;7.30;;;;;;;35.49;35.62;99975.56;5103792;28;20042;-24
2023/07/14 08:06:53;;;;;;;12.52;7.40;;;;;;;35.58;34.02;99984.28;5104557;28;20027;-26
2023/07/14 08:09:19;;;;;;;14.00;7.88;;;;;;;35.61;34.18;99980.75;5104836;28;20511;-24
2023/07/14 08:11:45;;;;;;;13.02;8.10;;;;;;;35.84;33.76;99965.78;5104826;28;20023;-24
2023/07/14 08:14:15;;;;;;;14.23;8.07;;;;;;;35.78;35.09;99976.47;5104933;28;20088;-25
2023/07/14 08:16:40;;;;;;;10.98;7.40;;;;;;;36.13;34.80;99974.16;5104874;28;20024;-25
2023/07/14 08:19:06;;;;;;;19.35;8.27;;;;;;;35.99;35.44;99967.38;5104678;28;20080;-24
2023/07/14 08:21:31;;;;;;;12.95;7.88;;;;;;;36.31;35.04;99960.28;5100353;28;20030;-24
2023/07/14 08:23:58;;;;;;;15.70;7.15;;;;;;;36.67;32.67;99961.06;5104375;28;20023;-24
2023/07/14 08:26:24;;;;;;;14.13;7.53;;;;;;;36.64;34.25;99949.97;5101999;28;20062;-24
2023/07/14 08:28:49;;;;;;;16.75;8.60;;;;;;;36.51;33.17;99958.69;5104624;28;20285;-24
2023/07/14 08:31:15;;;;;;;13.60;7.60;;;;;;;36.33;32.88;99953.16;5104184;28;20030;-24
2023/07/14 08:33:47;;;;;;;13.27;7.28;;;;;;;36.35;32.19;99950.78;5104829;28;20023;-25
2023/07/14 08:36:13;;;;;;;10.77;7.35;;;;;;;36.38;32.96;99955.53;5103094;28;20555;-25
2023/07/14 08:38:39;;;;;;;13.65;7.63;;;;;;;36.19;32.81;99951.16;5103794;28;20024;-24
2023/07/14 08:41:14;;;;;;;12.38;7.55;;;;;;;36.44;31.46;99957.91;5103753;28;20047;-24
2023/07/14 08:44:08;;;;;;;13.32;7.57;;;;;;;36.54;31.17;99957.09;5102514;28;20054;-24
2023/07/14 08:46:49;;;;;;;16.55;7.97;;;;;;;36.75;30.79;99962.66;5103739;28;20036;-24
2023/07/14 08:49:25;;;;;;;12.63;7.70;;;;;;;36.85;30.53;99946.38;5104210;28;20053;-24
2023/07/14 08:51:58;;;;;;;14.77;8.10;;;;;;;36.95;30.07;99953.88;5103284;28;20044;-24
2023/07/14 08:54:37;;;;;;;14.73;8.27;;;;;;;37.28;28.94;99957.38;5102242;28;20027;-25
2023/07/14 08:57:12;;;;;;;15.73;8.35;;;;;;;37.43;30.45;99964.44;5101288;28;20015;-29
2023/07/14 08:59:40;;;;;;;14.77;7.85;;;;;;;37.38;29.96;99953.75;5100725;28;20048;-24
2023/07/14 09:02:21;;;;;;;17.40;7.97;;;;;;;37.22;30.40;99956.19;5102957;28;20020;-25
2023/07/14 09:04:58;;;;;;;16.08;8.00;;;;;;;37.26;30.23;99956.97;5098923;28;20016;-24
2023/07/14 09:07:24;;;;;;;12.00;8.07;;;;;;;37.31;31.19;99959.31;5104223;28;20073;-25
2023/07/14 09:09:52;;;;;;;19.02;8.57;;;;;;;37.53;31.66;99948.88;5103190;28;20650;-26
2023/07/14 09:12:41;;;;;;;13.32;8.02;;;;;;;37.63;30.46;99941.72;5104160;28;20027;-24
2023/07/14 09:15:16;;;;;;;15.60;8.63;;;;;;;37.61;30.57;99938.53;5104823;28;20035;-25
2023/07/14 09:18:23;;;;;;;14.07;9.07;;;;;;;37.87;31.04;99935.19;5105208;28;20038;-24
2023/07/14 09:21:01;;;;;;;17.23;8.02;;;;;;;38.16;28.88;99951.69;5083159;28;20043;-25
2023/07/14 09:23:46;;;;;;;19.92;9.05;;;;;;;37.65;29.13;99947.66;5096453;28;20028;-24
2023/07/14 09:26:34;;;;;;;14.35;7.55;;;;;;;37.55;30.14;99938.16;5090251;28;20575;-24
2023/07/14 09:29:10;;;;;;;15.57;7.90;;;;;;;37.48;30.96;99933.41;5104678;28;20036;-25
2023/07/14 09:31:42;;;;;;;14.90;7.93;;;;;;;37.90;30.37;99944.72;5104285;28;20047;-24
2023/07/14 09:34:22;;;;;;;15.07;8.60;;;;;;;37.94;28.45;99946.25;5104511;28;20035;-25
2023/07/14 09:36:48;;;;;;;18.17;7.53;;;;;;;38.18;28.02;99943.72;5097458;28;20027;-24
2023/07/14 09:39:36;;;;;;;11.98;7.32;;;;;;;38.06;29.92;99930.31;5104892;28;20024;-24
2023/07/14 09:42:06;;;;;;;15.00;8.23;;;;;;;37.91;28.30;99935.16;5104189;28;20122;-24
2023/07/14 09:44:39;;;;;;;14.65;7.90;;;;;;;37.81;27.10;99936.81;5105007;28;20047;-24
2023/07/14 09:47:06;;;;;;;11.98;6.85;;;;;;;38.06;28.11;99931.09;5104990;28;20027;-29
2023/07/14 09:49:46;;;;;;;13.13;7.38;;;;;;;38.26;27.89;99922.19;5108569;28;20100;-24
2023/07/14 09:52:33;;;;;;;13.52;7.93;;;;;;;38.14;27.85;99920.69;5108344;28;20019;-24
2023/07/14 09:55:00;;;;;;;13.23;7.22;;;;;;;38.46;27.12;99925.19;5104485;28;20031;-24
2023/07/14 09:57:38;;;;;;;17.70;7.83;;;;;;;38.32;28.26;99915.75;5106647;28;20096;-24
2023/07/14 10:00:13;;;;;;;12.95;7.55;;;;;;;38.60;26.70;99922.28;5106024;28;20177;-25
2023/07/14 10:02:41;;;;;;;15.63;7.78;;;;;;;38.67;25.56;99924.97;5107263;28;20063;-25
2023/07/14 10:05:25;;;;;;;14.13;7.00;;;;;;;38.65;25.86;99918.25;5106081;28;20066;-24
2023/07/14 10:07:50;;;;;;;15.70;6.97;;;;;;;38.82;24.58;99916.47;5108020;28;20073;-26
2023/07/14 10:10:24;;;;;;;12.98;8.35;;;;;;;39.18;23.70;99919.63;5107795;28;20031;-24
2023/07/14 10:12:50;;;;;;;12.20;6.93;;;;;;;39.28;25.63;99906.78;5107772;28;20031;-25
2023/07/14 10:15:24;;;;;;;14.90;6.87;;;;;;;38.95;23.77;99907.16;5106787;28;20061;-25
2023/07/14 10:17:59;;;;;;;12.18;6.47;;;;;;;38.96;25.05;99908.75;5104844;28;20034;-25
2023/07/14 10:20:27;;;;;;;12.30;6.88;;;;;;;39.09;23.55;99914.59;5103211;28;20075;-24
2023/07/14 10:22:54;;;;;;;13.43;6.40;;;;;;;38.90;24.54;99902.03;5107935;28;20054;-24
2023/07/14 10:25:21;;;;;;;12.80;6.97;;;;;;;39.28;24.22;99912.34;5106376;27;20054;-24
2023/07/14 10:28:11;;;;;;;15.13;7.82;;;;;;;39.63;24.27;99899.13;5106811;28;20484;-25
2023/07/14 10:30:57;;;;;;;12.02;6.45;;;;;;;39.40;23.76;99899.84;5097056;28;20048;-28
2023/07/14 10:33:33;;;;;;;15.40;7.97;;;;;;;39.27;24.45;99894.81;5107627;28;20129;-24
2023/07/14 10:36:24;;;;;;;15.23;7.45;;;;;;;39.75;23.78;99888.16;5107633;28;20016;-25
2023/07/14 10:39:19;;;;;;;15.20;7.60;;;;;;;40.26;24.07;99885.34;5107265;28;20495;-24
2023/07/14 10:41:48;;;;;;;14.60;7.20;;;;;;;40.21;24.25;99885.81;5106292;28;20130;-24
2023/07/14 10:44:38;;;;;;;11.35;7.40;;;;;;;40.02;24.83;99881.75;5107261;28;20028;-26
2023/07/14 10:47:22;;;;;;;14.45;8.35;;;;;;;39.83;25.31;99879.69;5101836;28;20032;-24
2023/07/14 10:49:57;;;;;;;12.68;7.90;;;;;;;40.23;23.92;99888.97;5104351;28;20024;-25
2023/07/14 10:52:37;;;;;;;12.93;7.57;;;;;;;40.61;24.87;99883.09;5106267;28;20011;-24
2023/07/14 10:55:04;;;;;;;17.95;8.57;;;;;;;40.37;24.29;99885.94;5106280;28;20035;-24
2023/07/14 10:57:42;;;;;;;15.50;7.88;;;;;;;40.29;23.30;99884.47;5105943;28;20026;-24
2023/07/14 11:00:26;;;;;;;12.75;7.63;;;;;;;40.48;22.67;99873.78;5104335;28;20560;-25
2023/07/14 11:03:18;;;;;;;16.67;8.10;;;;;;;40.64;22.67;99881.47;5106942;28;20492;-25
2023/07/14 11:05:53;;;;;;;17.85;7.78;;;;;;;40.79;21.43;99882.78;5106535;28;20646;-24
2023/07/14 11:08:18;;;;;;;17.13;8.10;;;;;;;40.60;23.27;99873.13;5104954;28;20027;-25
2023/07/14 11:11:03;;;;;;;13.83;7.23;;;;;;;40.57;24.20;99865.63;5106252;28;20027;-25
2023/07/14 11:13:28;;;;;;;12.60;7.57;;;;;;;40.62;22.77;99865.09;5103793;28;20141;-25
2023/07/14 11:16:06;;;;;;;16.93;8.60;;;;;;;40.32;23.34;99860.53;5105992;28;20114;-25
2023/07/14 11:19:13;;;;;;;12.88;7.35;;;;;;;40.52;23.91;99857.72;5106052;28;20035;-24
2023/07/14 11:21:51;;;;;;;15.18;7.40;;;;;;;40.81;22.89;99852.38;5102971;28;20035;-26
2023/07/14 11:24:23;;;;;;;15.55;6.97;;;;;;;40.90;22.53;99855.38;5106665;28;20034;-26
2023/07/14 11:27:24;;;;;;;14.80;8.23;;;;;;;40.88;23.85;99841.03;5106207;28;20019;-25
2023/07/14 11:30:00;;;;;;;27.95;18.40;;;;;;;40.79;22.95;99842.88;5106264;28;20397;-25
2023/07/14 11:32:40;;;;;;;15.10;7.15;;;;;;;40.68;23.34;99832.63;5106310;28;20066;-25
2023/07/14 11:35:20;;;;;;;14.18;8.10;;;;;;;41.28;23.38;99840.22;5106566;28;20514;-24
2023/07/14 11:37:55;;;;;;;14.13;8.52;;;;;;;41.49;23.40;99834.09;5106066;27;20020;-25